DW8209 Gubbio IT current weather conditions

sailwx.info

Wind from 240

Air temperature -0.0° C
Dewpoint -0.4° C

Last reported at 2014-Dec-21 22:45 UTC.
Time now 2014-Dec-21 23:11 UTC

Location: N 43°19' E 012°34'.
View on Google Maps.

See reports from other nearby stations

  
Tides and Currents Weather Stations Pressure Air Temp Water Temp Dewpoint Dewpoint Depression Visibility Wind Speed Wind Dir Waves Ship Positions
date/time (UTC)wind fromknots sea level pressurealtimeterstation pressurevisibilityair tempwater tempwave heightnotes
2014-Dec-21 22:45 240 -0.0
2014-Dec-21 22:30 240 0.6
2014-Dec-21 22:15 240 1.1
2014-Dec-21 22:00 001 1 gusting 1 1.7
2014-Dec-21 21:45 281 0.6
2014-Dec-21 21:30 281 1.1
2014-Dec-21 21:15 295 1.7
2014-Dec-21 21:00 295 1.7
2014-Dec-21 20:45 290 2.2
2014-Dec-21 20:30 319 0 gusting 0 1.7
2014-Dec-21 20:15 239 2.2
2014-Dec-21 20:00 220 2.2
2014-Dec-21 19:45 248 2.8
2014-Dec-21 19:30 310 1 gusting 2 3.3
2014-Dec-21 19:15 268 3.3
2014-Dec-21 18:59 273 0 gusting 1 4.4
2014-Dec-21 18:44 321 0 gusting 1 3.9
2014-Dec-21 18:29 135 3.9
2014-Dec-21 18:14 136 4.4
2014-Dec-21 17:59 281 4.4
2014-Dec-21 17:44 281 5.0
2014-Dec-21 17:29 264 5.6
2014-Dec-21 17:14 143 6.7
2014-Dec-21 16:44 283 1 gusting 2 8.3
2014-Dec-21 16:29 059 3 gusting 6 9.4
2014-Dec-21 16:14 054 1 gusting 5 9.4
2014-Dec-21 15:59 114 2 gusting 4 9.4
2014-Dec-21 15:44 128 0 gusting 3 9.4
2014-Dec-21 15:29 205 0 gusting 2 10.0
2014-Dec-21 15:14 066 2 gusting 6 10.0
2014-Dec-21 14:59 068 3 gusting 7 10.6
2014-Dec-21 14:44 069 3 gusting 6 10.6
2014-Dec-21 14:29 089 6 gusting 12 10.6
2014-Dec-21 14:14 050 6 gusting 10 11.1
2014-Dec-21 13:59 045 6 gusting 11 11.1
2014-Dec-21 13:44 051 6 gusting 10 11.1
2014-Dec-21 13:29 080 7 gusting 10 11.1
2014-Dec-21 13:14 068 9 gusting 13 11.1
2014-Dec-21 12:59 046 9 gusting 15 11.1
2014-Dec-21 12:44 057 8 gusting 13 11.1
2014-Dec-21 12:29 056 8 gusting 11 11.1
2014-Dec-21 12:14 085 9 gusting 13 11.7
2014-Dec-21 11:59 053 6 gusting 11 12.2
2014-Dec-21 11:44 082 6 gusting 13 12.2
2014-Dec-21 11:29 065 6 gusting 11 12.2
2014-Dec-21 11:14 076 6 gusting 16 11.7
2014-Dec-21 10:59 057 7 gusting 11 11.7
2014-Dec-21 10:44 077 11 gusting 16 11.7
2014-Dec-21 10:29 070 5 gusting 12 11.1
2014-Dec-21 10:13 122 4 gusting 6 9.4
2014-Dec-21 09:58 096 4 gusting 8 8.3
2014-Dec-21 09:43 096 5 gusting 6 7.8
2014-Dec-21 09:28 135 7.8
2014-Dec-21 09:13 126 0 gusting 2 6.7
2014-Dec-21 08:58 088 6.1
2014-Dec-21 08:43 077 5.6
2014-Dec-21 08:28 224 5.0
2014-Dec-21 08:14 221 4.4
2014-Dec-21 07:58 079 0 gusting 1 3.9
2014-Dec-21 07:43 129 0 gusting 2 4.4
2014-Dec-21 07:28 287 4.4
2014-Dec-21 07:13 132 4.4
2014-Dec-21 06:58
2014-Dec-21 06:43
2014-Dec-21 06:27
2014-Dec-21 06:12
2014-Dec-21 05:57
2014-Dec-21 05:42
2014-Dec-21 05:27
2014-Dec-21 05:12
2014-Dec-21 04:57
2014-Dec-21 04:42
2014-Dec-21 04:27
2014-Dec-21 04:12
2014-Dec-21 03:57
2014-Dec-21 03:42
2014-Dec-21 03:27
2014-Dec-21 03:12
2014-Dec-21 02:56
2014-Dec-21 02:41
2014-Dec-21 02:26
2014-Dec-21 02:11
2014-Dec-21 01:56
2014-Dec-21 01:41
2014-Dec-21 01:26
2014-Dec-21 01:11
2014-Dec-21 00:56 188 6.7
2014-Dec-21 00:41 188 6.7
2014-Dec-21 00:26 141 6.7
2014-Dec-21 00:11 141 6.7
2014-Dec-20 23:56 141 6.7
2014-Dec-20 23:41 138 0 gusting 1 6.7
2014-Dec-20 23:26 212 6.7
2014-Dec-20 23:11 097 0 gusting 0 6.7
2014-Dec-20 22:56 142 6.7
2014-Dec-20 22:41 271 6.7
2014-Dec-20 22:26 271 6.7
2014-Dec-20 22:11 266 0 gusting 1 6.7
2014-Dec-20 21:56 127 6.7
2014-Dec-20 21:41 070 7.2
2014-Dec-20 21:26 300 6.7
2014-Dec-20 21:11 298 6.7
2014-Dec-20 20:56 297 7.2
2014-Dec-20 20:41 307 0 gusting 2 7.2
2014-Dec-20 20:26 287 0 gusting 1 7.2
2014-Dec-20 20:11 273 0 gusting 1 7.2
2014-Dec-20 19:56 242 7.2
2014-Dec-20 19:40 295 7.2
2014-Dec-20 19:25 295 7.2
2014-Dec-20 19:10 301 7.2
2014-Dec-20 18:55 281 7.2
2014-Dec-20 18:40 283 0 gusting 2 7.2
2014-Dec-20 18:25 193 7.2
2014-Dec-20 18:10 294 7.2
2014-Dec-20 17:55 295 0 gusting 1 7.2
2014-Dec-20 17:40 281 7.2
2014-Dec-20 17:25 281 7.2
2014-Dec-20 17:10 281 7.2
2014-Dec-20 16:55 281 0 gusting 1 7.8
2014-Dec-20 16:40 280 8.3
2014-Dec-20 16:25 330 8.9
2014-Dec-20 16:10 267 8.3
2014-Dec-20 15:55 270 9.4
2014-Dec-20 15:40 270 9.4
2014-Dec-20 15:25 269 10.0
2014-Dec-20 15:10 119 11.1
2014-Dec-20 14:55 119 11.7
2014-Dec-20 14:40 120 11.7
2014-Dec-20 14:25 117 0 gusting 3 11.7
2014-Dec-20 14:10 136 0 gusting 2 12.8
2014-Dec-20 13:55 120 12.8
2014-Dec-20 13:40 263 12.8
2014-Dec-20 13:25 262 12.2
2014-Dec-20 13:10 311 12.2
2014-Dec-20 12:55 314 0 gusting 2 12.2
2014-Dec-20 12:40 319 11.7
2014-Dec-20 12:25 280 0 gusting 3 11.7
2014-Dec-20 12:10 299 11.1
2014-Dec-20 11:55 287 0 gusting 2 11.1
2014-Dec-20 11:40 287 10.6
2014-Dec-20 11:25 287 2 gusting 4 11.1
2014-Dec-20 11:10 285 11.1
2014-Dec-20 10:55 287 11.1
2014-Dec-20 10:40 295 1 gusting 4 11.1
2014-Dec-20 10:25 287 2 gusting 4 11.1
2014-Dec-20 10:09 291 1 gusting 2 10.6
2014-Dec-20 09:54 300 0 gusting 2 10.6
2014-Dec-20 09:39 321 0 gusting 2 10.0
2014-Dec-20 09:24 287 0 gusting 1 9.4
2014-Dec-20 09:09 260 8.9
2014-Dec-20 08:54 257 8.3
2014-Dec-20 08:39 121 8.3
2014-Dec-20 08:24 121 7.8
2014-Dec-20 08:09 121 7.8
2014-Dec-20 07:54 121 7.2
2014-Dec-20 07:39 121 0 gusting 0 7.2
2014-Dec-20 07:24
2014-Dec-20 07:09
2014-Dec-20 06:54
2014-Dec-20 06:39
2014-Dec-20 06:24
2014-Dec-20 06:09
2014-Dec-20 05:53
2014-Dec-20 05:38
2014-Dec-20 05:23
2014-Dec-20 05:08
2014-Dec-20 04:53
2014-Dec-20 04:38
2014-Dec-20 04:23
2014-Dec-20 04:08
2014-Dec-20 03:54
2014-Dec-20 03:38
2014-Dec-20 03:23
2014-Dec-20 03:08
2014-Dec-20 02:53
2014-Dec-20 02:38
2014-Dec-20 02:22
2014-Dec-20 02:07
2014-Dec-20 01:52
2014-Dec-20 01:37
2014-Dec-20 01:22
2014-Dec-20 01:07
2014-Dec-20 00:52 092 3 gusting 4 6.7
2014-Dec-20 00:37 079 3 gusting 3 7.2
2014-Dec-20 00:22 099 2 gusting 4 7.2
2014-Dec-20 00:07 188 7.2
2014-Dec-19 23:52 104 1 gusting 2 7.2
2014-Dec-19 23:37 141 7.8
2014-Dec-19 23:22 250 7.8
2014-Dec-19 23:07 250 7.8